WABB/BIK METAR and TAF weather

Enter ICAO airport designator
Station Type Date Time Source
WABB METAR 2024/07/15 21:00 UTC NOAA

WABB 152100Z 00000KT 9999 FEW015 BKN100 26/26 Q1009 NOSIG


Station Type Date Time Source
WABB Decoded METAR 2024/07/15 21:00 UTC NOAA

Biak / Mokmer, Indonesia (WABB) 01-11S 136-07E 11M
Jul 15, 2024 - 05:00 PM EDT / 2024.07.15 2100 UTC
Wind: Calm:0
Visibility: greater than 7 mile(s):0
Sky conditions: mostly cloudy
Temperature: 78 F (26 C)
Dew Point: 78 F (26 C)
Relative Humidity: 100%
Pressure (altimeter): 29.80 in. Hg (1009 hPa)
ob: WABB 152100Z 00000KT 9999 FEW015 BKN100 26/26 Q1009 NOSIG
cycle: 21

Station Type Date Time Source
WABB TAF 2024/07/15 18:07 UTC NOAA